Sea Diamond Fisheries — WDI8881 — position and weather

sailwx.info

Track history (hours):
 
Tides and Currents Weather Stations Pressure Air Temp Water Temp Dewpoint Dewpoint Depression Visibility Wind Speed Wind Dir Waves Ship Positions

Sea Diamond Fisheries

Owner: Sea Diamond Fisheries, Sitka, AK. More information available from US FCC via Universal Licensing System and Coast Guard Vessel Documentation Center.

Last reported at 2018-Mar-31 05:17 UTC. Time now 2018-Apr-20 16:26 UTC.
Position N 38°42' W 123°36'.
Warning: this ship's position is 20 days out of date.

Length 24 m.

Type: Fishing. MMSI: 367743080.

Date/timePositionNaut miles runAvg speedWind from/ knotsBaromVisibWave heightAir tempDewpointWater temp
2018-Mar-31 05:17N 38°42' W 123°36'2 6.5
2018-Mar-31 05:00N 38°40' W 123°34'3 6.5
2018-Mar-31 04:30N 38°38' W 123°32'3 6.2
2018-Mar-31 04:00N 38°35' W 123°30'3 6.1
2018-Mar-31 03:30N 38°32' W 123°28'3 6.1
2018-Mar-31 03:00N 38°30' W 123°27'3 6.2
2018-Mar-31 02:30N 38°27' W 123°24'3 6.4
2018-Mar-31 02:00N 38°24' W 123°22'3 6.7
2018-Mar-31 01:30N 38°21' W 123°20'3 6.9
2018-Mar-31 01:00N 38°18' W 123°18'3 6.9
2018-Mar-31 00:30N 38°15' W 123°16'4 7.0
2018-Mar-31 00:00N 38°12' W 123°13'4 7.1
2018-Mar-30 23:30N 38°09' W 123°11'4 7.3
2018-Mar-30 23:00N 38°06' W 123°09'4 7.3
2018-Mar-30 22:30N 38°03' W 123°06'4 7.6
2018-Mar-30 22:00N 38°00' W 123°04'4 7.6
2018-Mar-30 21:30N 37°57' W 123°00'4 7.5
2018-Mar-30 21:00N 37°55' W 122°56'4 7.4
2018-Mar-30 20:30N 37°53' W 122°53'4 7.6
2018-Mar-30 20:00N 37°51' W 122°49'5 8.4
2018-Mar-30 19:24N 37°47' W 122°44'4 8.5
2018-Mar-30 18:59N 37°44' W 122°42'4 8.2
2018-Mar-30 18:30N 37°41' W 122°39'4 7.5
2018-Mar-30 18:00N 37°37' W 122°38'4 7.6
2018-Mar-30 17:30N 37°33' W 122°37'4 7.6
2018-Mar-30 17:00N 37°30' W 122°36'4 7.6
2018-Mar-30 16:30N 37°26' W 122°36'4 7.8
2018-Mar-30 16:00N 37°22' W 122°35'4 7.8
2018-Mar-30 15:30N 37°18' W 122°34'4 7.7
2018-Mar-30 15:00N 37°15' W 122°32'4 7.6
2018-Mar-30 14:28N 37°11' W 122°30'4 7.6
2018-Mar-30 13:56N 37°07' W 122°28'3 7.5
2018-Mar-30 13:30N 37°04' W 122°26'5 7.5
2018-Mar-30 12:54N 37°01' W 122°23'7 7.1
2018-Mar-30 11:54N 36°55' W 122°18'88 7.2
2018-Mar-29 23:37N 35°38' W 121°24'1 7.3
2018-Mar-29 23:30N 35°37' W 121°23'4 7.1
2018-Mar-29 23:00N 35°34' W 121°21'4 6.8
2018-Mar-29 22:29N 35°32' W 121°18'3 6.4
2018-Mar-29 21:57N 35°29' W 121°16'10 7.0
2018-Mar-29 20:27N 35°20' W 121°08'3 7.0
2018-Mar-29 19:58N 35°18' W 121°06'3 6.9
2018-Mar-29 19:30N 35°15' W 121°04'4 6.8
2018-Mar-29 18:59N 35°12' W 121°01'3 6.7
2018-Mar-29 18:30N 35°10' W 120°59'3 6.5
2018-Mar-29 18:00N 35°07' W 120°57'5 6.9
2018-Mar-29 17:20N 35°03' W 120°54'2 6.9
2018-Mar-29 17:00N 35°01' W 120°52'3 7.0
2018-Mar-29 16:30N 34°58' W 120°50'3 6.8
2018-Mar-29 16:00N 34°55' W 120°47'3 6.8
2018-Mar-29 15:30N 34°53' W 120°45'4 7.1
2018-Mar-29 15:00N 34°50' W 120°42'4 7.2
2018-Mar-29 14:30N 34°47' W 120°40'4 7.6
2018-Mar-29 14:00N 34°43' W 120°40'4 7.7
2018-Mar-29 13:30N 34°39' W 120°40'5 7.4
2018-Mar-29 12:54N 34°34' W 120°40'3 7.1
2018-Mar-29 12:30N 34°32' W 120°39'4 7.3
2018-Mar-29 12:00N 34°30' W 120°35'4 7.9
2018-Mar-29 11:30N 34°28' W 120°31'4 7.7
2018-Mar-29 10:59N 34°26' W 120°27'4 7.7
2018-Mar-29 10:29N 34°25' W 120°22'4 7.9
2018-Mar-29 10:00N 34°24' W 120°18'4 7.9
2018-Mar-29 09:28N 34°24' W 120°13'4 7.8
2018-Mar-29 09:00N 34°23' W 120°09'4 7.9
2018-Mar-29 08:29N 34°21' W 120°04'4 7.9
2018-Mar-29 07:56N 34°20' W 119°59'3 7.6
2018-Mar-29 07:29N 34°19' W 119°55'4 7.6
2018-Mar-29 06:57N 34°18' W 119°50'4 7.3
2018-Mar-29 06:27N 34°18' W 119°46'4 7.3
2018-Mar-29 05:52N 34°17' W 119°40'3 6.9
2018-Mar-29 05:28N 34°17' W 119°37'3 6.8
2018-Mar-29 04:58N 34°16' W 119°33'3 6.9
2018-Mar-29 04:29N 34°15' W 119°29'4 7.1
2018-Mar-29 03:57N 34°14' W 119°25'3 7.2
2018-Mar-29 03:30N 34°14' W 119°21'4 7.2
2018-Mar-29 03:00N 34°14' W 119°17'1 1.4
2018-Mar-29 02:27N 34°15' W 119°16'0 0.0
2018-Mar-29 01:53N 34°15' W 119°16'0 0.0
2018-Mar-29 01:28N 34°15' W 119°16'0 0.0
2018-Mar-29 00:59N 34°15' W 119°16'0 0.0
2018-Mar-29 00:30N 34°15' W 119°16'0 0.0
2018-Mar-28 23:49N 34°15' W 119°16'0 0.0
2018-Mar-28 23:30N 34°15' W 119°16'  
Track history (hours):
 
Tides and Currents Weather Stations Pressure Air Temp Water Temp Dewpoint Dewpoint Depression Visibility Wind Speed Wind Dir Waves Ship Positions

Sea Diamond Fisheries

Owner: Sea Diamond Fisheries, Sitka, AK. More information available from US FCC via Universal Licensing System and Coast Guard Vessel Documentation Center.

Last reported at 2018-Mar-31 05:17 UTC. Time now 2018-Apr-20 16:26 UTC.
Position N 38°42' W 123°36'.
Warning: this ship's position is 20 days out of date.

Length 24 m.

Type: Fishing. MMSI: 367743080.

Date/timePositionNaut miles runAvg speedWind from/ knotsBaromVisibWave heightAir tempDewpointWater temp
2018-Mar-31 05:17N 38°42' W 123°36'2 6.5
2018-Mar-31 05:00N 38°40' W 123°34'3 6.5
2018-Mar-31 04:30N 38°38' W 123°32'3 6.2
2018-Mar-31 04:00N 38°35' W 123°30'3 6.1
2018-Mar-31 03:30N 38°32' W 123°28'3 6.1
2018-Mar-31 03:00N 38°30' W 123°27'3 6.2
2018-Mar-31 02:30N 38°27' W 123°24'3 6.4
2018-Mar-31 02:00N 38°24' W 123°22'3 6.7
2018-Mar-31 01:30N 38°21' W 123°20'3 6.9
2018-Mar-31 01:00N 38°18' W 123°18'3 6.9
2018-Mar-31 00:30N 38°15' W 123°16'4 7.0
2018-Mar-31 00:00N 38°12' W 123°13'4 7.1
2018-Mar-30 23:30N 38°09' W 123°11'4 7.3
2018-Mar-30 23:00N 38°06' W 123°09'4 7.3
2018-Mar-30 22:30N 38°03' W 123°06'4 7.6
2018-Mar-30 22:00N 38°00' W 123°04'4 7.6
2018-Mar-30 21:30N 37°57' W 123°00'4 7.5
2018-Mar-30 21:00N 37°55' W 122°56'4 7.4
2018-Mar-30 20:30N 37°53' W 122°53'4 7.6
2018-Mar-30 20:00N 37°51' W 122°49'5 8.4
2018-Mar-30 19:24N 37°47' W 122°44'4 8.5
2018-Mar-30 18:59N 37°44' W 122°42'4 8.2
2018-Mar-30 18:30N 37°41' W 122°39'4 7.5
2018-Mar-30 18:00N 37°37' W 122°38'4 7.6
2018-Mar-30 17:30N 37°33' W 122°37'4 7.6
2018-Mar-30 17:00N 37°30' W 122°36'4 7.6
2018-Mar-30 16:30N 37°26' W 122°36'4 7.8
2018-Mar-30 16:00N 37°22' W 122°35'4 7.8
2018-Mar-30 15:30N 37°18' W 122°34'4 7.7
2018-Mar-30 15:00N 37°15' W 122°32'4 7.6
2018-Mar-30 14:28N 37°11' W 122°30'4 7.6
2018-Mar-30 13:56N 37°07' W 122°28'3 7.5
2018-Mar-30 13:30N 37°04' W 122°26'5 7.5
2018-Mar-30 12:54N 37°01' W 122°23'7 7.1
2018-Mar-30 11:54N 36°55' W 122°18'88 7.2
2018-Mar-29 23:37N 35°38' W 121°24'1 7.3
2018-Mar-29 23:30N 35°37' W 121°23'4 7.1
2018-Mar-29 23:00N 35°34' W 121°21'4 6.8
2018-Mar-29 22:29N 35°32' W 121°18'3 6.4
2018-Mar-29 21:57N 35°29' W 121°16'10 7.0
2018-Mar-29 20:27N 35°20' W 121°08'3 7.0
2018-Mar-29 19:58N 35°18' W 121°06'3 6.9
2018-Mar-29 19:30N 35°15' W 121°04'4 6.8
2018-Mar-29 18:59N 35°12' W 121°01'3 6.7
2018-Mar-29 18:30N 35°10' W 120°59'3 6.5
2018-Mar-29 18:00N 35°07' W 120°57'5 6.9
2018-Mar-29 17:20N 35°03' W 120°54'2 6.9
2018-Mar-29 17:00N 35°01' W 120°52'3 7.0
2018-Mar-29 16:30N 34°58' W 120°50'3 6.8
2018-Mar-29 16:00N 34°55' W 120°47'3 6.8
2018-Mar-29 15:30N 34°53' W 120°45'4 7.1
2018-Mar-29 15:00N 34°50' W 120°42'4 7.2
2018-Mar-29 14:30N 34°47' W 120°40'4 7.6
2018-Mar-29 14:00N 34°43' W 120°40'4 7.7
2018-Mar-29 13:30N 34°39' W 120°40'5 7.4
2018-Mar-29 12:54N 34°34' W 120°40'3 7.1
2018-Mar-29 12:30N 34°32' W 120°39'4 7.3
2018-Mar-29 12:00N 34°30' W 120°35'4 7.9
2018-Mar-29 11:30N 34°28' W 120°31'4 7.7
2018-Mar-29 10:59N 34°26' W 120°27'4 7.7
2018-Mar-29 10:29N 34°25' W 120°22'4 7.9
2018-Mar-29 10:00N 34°24' W 120°18'4 7.9
2018-Mar-29 09:28N 34°24' W 120°13'4 7.8
2018-Mar-29 09:00N 34°23' W 120°09'4 7.9
2018-Mar-29 08:29N 34°21' W 120°04'4 7.9
2018-Mar-29 07:56N 34°20' W 119°59'3 7.6
2018-Mar-29 07:29N 34°19' W 119°55'4 7.6
2018-Mar-29 06:57N 34°18' W 119°50'4 7.3
2018-Mar-29 06:27N 34°18' W 119°46'4 7.3
2018-Mar-29 05:52N 34°17' W 119°40'3 6.9
2018-Mar-29 05:28N 34°17' W 119°37'3 6.8
2018-Mar-29 04:58N 34°16' W 119°33'3 6.9
2018-Mar-29 04:29N 34°15' W 119°29'4 7.1
2018-Mar-29 03:57N 34°14' W 119°25'3 7.2
2018-Mar-29 03:30N 34°14' W 119°21'4 7.2
2018-Mar-29 03:00N 34°14' W 119°17'1 1.4
2018-Mar-29 02:27N 34°15' W 119°16'0 0.0
2018-Mar-29 01:53N 34°15' W 119°16'0 0.0
2018-Mar-29 01:28N 34°15' W 119°16'0 0.0
2018-Mar-29 00:59N 34°15' W 119°16'0 0.0
2018-Mar-29 00:30N 34°15' W 119°16'0 0.0
2018-Mar-28 23:49N 34°15' W 119°16'0 0.0
2018-Mar-28 23:30N 34°15' W 119°16'  

Dump ship's entire track history